Time;durP1;ratioP1;P1;durP2;ratioP2;P2;SDS_P1;SDS_P2;PMS_P1;PMS_P2;Temp;Humidity;BMP_temperature;BMP_pressure;BME280_temperature;BME280_humidity;BME280_pressure;Samples;Min_cycle;Max_cycle;Signal;HPM_P1;HPM_P2
2022/12/23 00:00:37;;;;;;;28.27;12.15;;;;;;;-0.82;76.08;101708.86;1924773;74;21220;-58
2022/12/23 00:03:06;;;;;;;30.35;12.35;;;;;;;-0.86;76.13;101708.34;1918226;74;21530;-57
2022/12/23 00:05:39;;;;;;;22.07;9.50;;;;;;;-0.87;76.16;101708.73;1925941;74;21099;-57
2022/12/23 00:08:08;;;;;;;14.78;7.42;;;;;;;-0.84;76.21;101707.52;1926153;74;21573;-56
2022/12/23 00:10:40;;;;;;;27.25;10.32;;;;;;;-0.82;76.29;101709.72;1924944;74;21142;-56
2022/12/23 00:16:05;;;;;;;13.62;6.03;;;;;;;-0.79;76.13;101696.88;1937732;73;21021;-57
2022/12/23 00:18:34;;;;;;;16.87;7.78;;;;;;;-0.75;75.94;101704.71;1933815;73;21145;-57
2022/12/23 00:21:06;;;;;;;28.60;8.28;;;;;;;-0.75;75.85;101702.98;1925240;74;21663;-57
2022/12/23 00:23:41;;;;;;;20.17;8.93;;;;;;;-0.74;75.74;101696.95;1925758;74;21087;-56
2022/12/23 00:26:24;;;;;;;29.27;12.35;;;;;;;-0.74;75.59;101699.97;1925160;73;21055;-59
2022/12/23 00:28:54;;;;;;;18.17;8.15;;;;;;;-0.74;75.57;101695.67;1925386;73;21612;-57
2022/12/23 00:31:23;;;;;;;23.87;10.65;;;;;;;-0.76;75.53;101692.60;1927005;73;21114;-56
2022/12/23 00:33:53;;;;;;;34.25;14.20;;;;;;;-0.81;75.67;101695.97;1924570;74;21068;-56
2022/12/23 00:36:26;;;;;;;29.92;13.13;;;;;;;-0.87;76.12;101688.05;1926149;74;21498;-56
2022/12/23 00:45:14;;;;;;;34.27;12.90;;;;;;;-0.96;76.89;101685.25;1918764;74;21027;-54
2022/12/23 00:50:17;;;;;;;29.57;11.65;;;;;;;-0.99;76.64;101681.32;1915304;75;21072;-52
2022/12/23 00:52:46;;;;;;;24.00;10.38;;;;;;;-1.02;76.99;101682.53;1915264;75;21059;-53
2022/12/23 00:55:15;;;;;;;20.25;10.32;;;;;;;-1.03;76.85;101684.67;1915354;75;21093;-55
2022/12/23 00:57:43;;;;;;;22.85;10.98;;;;;;;-1.05;76.73;101683.73;1915276;75;21556;-53
2022/12/23 01:00:13;;;;;;;31.62;12.03;;;;;;;-1.09;76.90;101675.46;1914632;75;21093;-54
2022/12/23 01:05:37;;;;;;;28.40;10.20;;;;;;;-1.14;77.31;101671.48;1915341;75;21451;-53
2022/12/23 01:08:09;;;;;;;21.33;8.58;;;;;;;-1.18;77.50;101661.50;1915308;75;21058;-53
2022/12/23 01:10:40;;;;;;;20.92;8.28;;;;;;;-1.19;77.53;101670.07;1915281;75;21039;-53
2022/12/23 01:13:09;;;;;;;14.90;7.25;;;;;;;-1.19;77.33;101665.33;1893605;75;21116;-53
2022/12/23 01:15:37;;;;;;;24.57;12.35;;;;;;;-1.21;77.27;101662.70;1882598;76;21059;-53
2022/12/23 01:18:06;;;;;;;24.47;9.33;;;;;;;-1.22;77.38;101658.39;1872808;76;21078;-53
2022/12/23 01:20:36;;;;;;;24.43;11.35;;;;;;;-1.23;77.53;101650.59;1912491;75;21078;-54
2022/12/23 01:23:05;;;;;;;16.62;8.30;;;;;;;-1.23;77.57;101650.17;1882467;76;21347;-54
2022/12/23 01:25:33;;;;;;;19.82;9.88;;;;;;;-1.21;77.39;101657.53;1882405;76;21054;-55
2022/12/23 01:28:02;;;;;;;24.95;10.88;;;;;;;-1.20;77.17;101648.06;1890891;75;21102;-56
2022/12/23 01:30:31;;;;;;;27.42;12.53;;;;;;;-1.18;77.00;101651.16;1899870;75;21026;-57
2022/12/23 01:32:59;;;;;;;14.25;7.72;;;;;;;-1.18;77.05;101651.16;1883626;75;21537;-56
2022/12/23 01:35:28;;;;;;;16.52;7.90;;;;;;;-1.22;77.12;101651.93;1882476;76;21053;-56
2022/12/23 01:37:57;;;;;;;16.85;5.85;;;;;;;-1.27;77.21;101647.06;1888110;75;21144;-59
2022/12/23 01:40:25;;;;;;;11.70;5.97;;;;;;;-1.29;77.20;101642.28;1897376;75;21234;-57
2022/12/23 01:42:54;;;;;;;14.68;9.23;;;;;;;-1.32;77.18;101642.20;1898499;74;21199;-56
2022/12/23 01:45:29;;;;;;;13.72;8.40;;;;;;;-1.34;77.40;101643.87;1925196;74;21136;-57
2022/12/23 01:48:08;;;;;;;25.08;11.95;;;;;;;-1.35;77.36;101642.11;1916078;74;21109;-57
2022/12/23 01:50:39;;;;;;;27.25;10.18;;;;;;;-1.37;77.58;101634.74;1863297;76;21501;-53
2022/12/23 01:53:20;;;;;;;24.72;9.75;;;;;;;-1.41;77.83;101634.22;1891630;76;21047;-55
2022/12/23 01:56:01;;;;;;;15.88;8.00;;;;;;;-1.40;77.83;101632.11;1854326;77;21062;-57
2022/12/23 01:58:35;;;;;;;19.73;8.83;;;;;;;-1.41;77.76;101635.09;1863300;76;21581;-56
2022/12/23 02:03:54;;;;;;;12.28;5.25;;;;;;;-1.45;77.96;101637.58;1848059;78;21491;-53
2022/12/23 02:09:18;;;;;;;22.42;10.28;;;;;;;-1.47;77.87;101625.05;1848079;78;21610;-54
2022/12/23 02:11:53;;;;;;;13.62;6.50;;;;;;;-1.50;77.85;101632.70;1846699;78;21542;-51
2022/12/23 02:17:51;;;;;;;13.88;6.62;;;;;;;-1.53;78.19;101632.62;1866488;75;21040;-54
2022/12/23 02:20:43;;;;;;;10.18;4.75;;;;;;;-1.55;78.20;101636.45;1821806;79;21087;-55
2022/12/23 02:23:46;;;;;;;23.42;10.72;;;;;;;-1.56;78.30;101627.84;1852775;77;21548;-55
2022/12/23 02:26:37;;;;;;;16.42;4.95;;;;;;;-1.58;78.55;101625.64;1846623;77;21515;-55
2022/12/23 02:29:17;;;;;;;26.07;10.75;;;;;;;-1.59;78.48;101625.59;1879976;76;21066;-54
2022/12/23 02:32:04;;;;;;;25.43;9.95;;;;;;;-1.60;78.58;101628.60;1867120;76;21043;-57
2022/12/23 02:34:52;;;;;;;10.30;5.37;;;;;;;-1.61;78.80;101629.42;1887085;76;21478;-54
2022/12/23 02:37:32;;;;;;;2.47;1.95;;;;;;;-1.62;78.78;101629.41;1874602;76;21079;-56
2022/12/23 02:40:13;;;;;;;18.70;9.25;;;;;;;-1.63;78.61;101628.52;1869640;76;21084;-55
2022/12/23 02:42:53;;;;;;;10.32;4.80;;;;;;;-1.65;78.74;101627.61;1880982;76;21103;-55
2022/12/23 02:45:28;;;;;;;9.73;5.03;;;;;;;-1.66;78.58;101628.85;1856139;76;21047;-56
2022/12/23 02:48:00;;;;;;;19.12;8.08;;;;;;;-1.70;78.57;101624.03;1878381;76;21192;-57
2022/12/23 02:50:31;;;;;;;14.50;6.72;;;;;;;-1.72;78.58;101624.83;1880283;76;21032;-55
2022/12/23 02:53:02;;;;;;;11.63;6.37;;;;;;;-1.75;78.58;101631.67;1880150;75;21121;-56
2022/12/23 02:55:35;;;;;;;12.43;6.22;;;;;;;-1.77;78.61;101624.70;1884776;75;21243;-56
2022/12/23 02:58:07;;;;;;;11.88;4.30;;;;;;;-1.76;78.73;101622.59;1904665;75;21047;-56
2022/12/23 03:00:38;;;;;;;8.55;4.83;;;;;;;-1.77;78.67;101620.44;1875325;76;21036;-56
2022/12/23 03:03:06;;;;;;;9.63;6.03;;;;;;;-1.78;78.71;101617.81;1875391;76;21603;-55
2022/12/23 03:05:39;;;;;;;5.05;4.05;;;;;;;-1.78;78.63;101615.23;1886987;75;21109;-55
2022/12/23 03:08:13;;;;;;;15.60;6.33;;;;;;;-1.78;78.57;101615.23;1914647;75;21027;-55
2022/12/23 03:10:50;;;;;;;8.28;4.37;;;;;;;-1.78;78.45;101612.64;1914742;75;21161;-53
2022/12/23 03:13:38;;;;;;;13.10;7.30;;;;;;;-1.78;78.35;101617.38;1914573;75;21098;-53
2022/12/23 03:16:28;;;;;;;11.83;3.85;;;;;;;-1.77;78.28;101618.25;1914609;75;21097;-53
2022/12/23 03:19:17;;;;;;;9.68;4.67;;;;;;;-1.76;78.20;101608.39;1912141;75;21079;-52
2022/12/23 03:21:51;;;;;;;22.00;8.55;;;;;;;-1.74;78.12;101610.59;1913345;75;21134;-57
2022/12/23 03:24:26;;;;;;;12.55;5.90;;;;;;;-1.72;78.33;101605.05;1914628;75;21043;-58
2022/12/23 03:27:03;;;;;;;20.27;6.22;;;;;;;-1.70;78.43;101599.50;1913837;75;21047;-56
2022/12/23 03:29:37;;;;;;;13.72;6.03;;;;;;;-1.68;78.43;101603.41;1907292;75;21047;-55
2022/12/23 03:32:08;;;;;;;13.72;6.15;;;;;;;-1.70;78.43;101612.41;1914166;75;21134;-56
2022/12/23 03:34:39;;;;;;;11.73;5.80;;;;;;;-1.72;78.60;101612.79;1914683;75;21090;-52
2022/12/23 03:37:11;;;;;;;16.00;7.35;;;;;;;-1.71;78.46;101609.39;1915061;75;21502;-52
2022/12/23 03:39:55;;;;;;;11.38;4.83;;;;;;;-1.71;78.44;101605.52;1914740;75;21129;-56
2022/12/23 03:42:35;;;;;;;11.85;6.08;;;;;;;-1.71;78.67;101601.64;1911447;75;21099;-56
2022/12/23 03:45:07;;;;;;;10.18;6.00;;;;;;;-1.68;78.56;101608.15;1901072;75;21145;-56
2022/12/23 03:47:45;;;;;;;12.03;5.30;;;;;;;-1.66;78.45;101602.64;1901847;75;21627;-56
2022/12/23 03:50:16;;;;;;;13.22;6.30;;;;;;;-1.65;78.30;101609.53;1901745;75;21036;-56
2022/12/23 03:52:57;;;;;;;20.45;7.15;;;;;;;-1.63;78.21;101618.19;1901795;75;21463;-56
2022/12/23 03:55:31;;;;;;;11.97;5.65;;;;;;;-1.60;78.15;101607.94;1910690;74;21466;-56
2022/12/23 03:58:21;;;;;;;13.48;6.80;;;;;;;-1.59;78.02;101608.80;1913090;75;21027;-56
2022/12/23 04:00:53;;;;;;;9.98;5.15;;;;;;;-1.58;77.91;101611.86;1913254;75;21039;-56
2022/12/23 04:03:33;;;;;;;11.38;4.45;;;;;;;-1.57;78.22;101609.71;1912101;75;21800;-56
2022/12/23 04:06:04;;;;;;;12.78;5.83;;;;;;;-1.56;78.16;101611.47;1892041;75;21086;-56
2022/12/23 04:08:38;;;;;;;18.02;6.62;;;;;;;-1.57;78.01;101609.32;1897820;75;21038;-56
2022/12/23 04:11:06;;;;;;;;;;;;;;;-1.58;77.90;101608.84;1906338;75;21128;-56
2022/12/23 04:13:34;;;;;;;9.25;6.17;;;;;;;-1.57;77.83;101608.03;1901897;74;20113;-58
2022/12/23 04:16:04;;;;;;;20.30;9.90;;;;;;;-1.59;77.76;101604.50;1901953;75;21039;-56
2022/12/23 04:18:32;;;;;;;11.93;6.42;;;;;;;-1.60;77.77;101604.06;1902086;75;21105;-55
2022/12/23 04:21:01;;;;;;;7.03;3.55;;;;;;;-1.62;78.19;101604.45;1902150;75;21008;-55
2022/12/23 04:23:30;;;;;;;9.57;5.13;;;;;;;-1.63;78.21;101600.11;1901928;75;21145;-55
2022/12/23 04:25:58;;;;;;;16.45;7.58;;;;;;;-1.66;78.34;101603.92;1901920;75;21101;-56
2022/12/23 04:28:27;;;;;;;15.95;7.10;;;;;;;-1.68;78.44;101604.28;1901921;75;21130;-56
2022/12/23 04:30:56;;;;;;;18.17;6.80;;;;;;;-1.69;78.63;101601.26;1904686;75;20987;-55
2022/12/23 04:33:24;;;;;;;14.03;7.03;;;;;;;-1.68;78.71;101601.69;1914749;75;21027;-57
2022/12/23 04:35:53;;;;;;;18.23;9.13;;;;;;;-1.67;78.84;101597.00;1914585;75;21109;-57
2022/12/23 04:38:22;;;;;;;12.65;5.78;;;;;;;-1.66;79.07;101596.58;1914685;75;21027;-56
2022/12/23 04:40:50;;;;;;;10.88;4.90;;;;;;;-1.64;78.90;101603.94;1913359;75;21035;-57
2022/12/23 04:43:19;;;;;;;18.10;7.25;;;;;;;-1.63;78.72;101601.40;1869448;76;21075;-58
2022/12/23 04:45:52;;;;;;;9.93;5.72;;;;;;;-1.63;78.60;101598.81;1869860;77;21676;-56
2022/12/23 04:48:21;;;;;;;16.45;7.28;;;;;;;-1.60;78.65;101605.36;1870016;77;21121;-56
2022/12/23 04:50:49;;;;;;;26.12;6.55;;;;;;;-1.60;78.93;101604.50;1869856;77;21080;-56
2022/12/23 04:53:18;;;;;;;12.65;5.75;;;;;;;-1.59;79.04;101604.50;1899251;75;21011;-55
2022/12/23 04:55:51;;;;;;;16.60;7.53;;;;;;;-1.58;78.82;101601.10;1902065;75;21085;-57
2022/12/23 04:58:24;;;;;;;20.40;7.65;;;;;;;-1.56;78.83;101602.01;1901925;75;21423;-57
2022/12/23 05:01:01;;;;;;;15.32;7.42;;;;;;;-1.54;79.01;101598.61;1901919;75;21028;-55
2022/12/23 05:03:30;;;;;;;16.75;8.55;;;;;;;-1.54;79.22;101607.64;1901929;75;21020;-56
2022/12/23 05:05:59;;;;;;;20.60;6.53;;;;;;;-1.54;79.29;101609.80;1901925;75;21027;-56
2022/12/23 05:08:28;;;;;;;22.73;6.53;;;;;;;-1.56;79.45;101617.50;1901936;75;21173;-56
2022/12/23 05:10:57;;;;;;;16.23;6.42;;;;;;;-1.55;79.31;101619.66;1913246;75;21108;-57
2022/12/23 05:13:25;;;;;;;8.45;3.75;;;;;;;-1.56;79.49;101621.38;1914577;75;21038;-57
2022/12/23 05:15:55;;;;;;;12.55;5.45;;;;;;;-1.53;79.44;101618.41;1914654;75;21124;-57
2022/12/23 05:18:24;;;;;;;8.63;3.90;;;;;;;-1.54;79.55;101619.27;1914426;75;21588;-57
2022/12/23 05:20:52;;;;;;;11.60;5.67;;;;;;;-1.56;79.77;101621.38;1904310;75;21114;-58
2022/12/23 05:23:21;;;;;;;10.03;3.60;;;;;;;-1.54;79.96;101616.25;1901869;75;21153;-56
2022/12/23 05:25:54;;;;;;;14.65;6.05;;;;;;;-1.43;79.92;101612.64;1901902;75;21044;-57
2022/12/23 05:28:23;;;;;;;5.75;3.40;;;;;;;-1.26;79.87;101611.33;1902000;75;21486;-57
2022/12/23 05:31:03;;;;;;;16.82;5.03;;;;;;;-1.00;79.57;101618.41;1906203;75;21548;-56
2022/12/23 05:33:33;;;;;;;12.80;5.80;;;;;;;-0.70;79.17;101621.21;1914799;75;21018;-56
2022/12/23 05:36:02;;;;;;;9.20;5.67;;;;;;;-0.35;78.52;101620.17;1914667;75;21454;-56
2022/12/23 05:38:31;;;;;;;15.83;8.13;;;;;;;-0.02;77.76;101618.25;1914663;75;21050;-57
2022/12/23 05:41:00;;;;;;;8.25;4.50;;;;;;;0.35;77.19;101624.08;1913263;75;21007;-57
2022/12/23 05:43:28;;;;;;;14.68;6.72;;;;;;;0.79;76.37;101627.36;1915441;74;22611;-57
2022/12/23 05:45:57;;;;;;;18.45;7.47;;;;;;;1.19;75.51;101625.36;1928566;74;21038;-56
2022/12/23 05:48:26;;;;;;;15.93;6.75;;;;;;;1.57;74.79;101623.66;1928509;74;20999;-57
2022/12/23 05:50:55;;;;;;;16.20;7.12;;;;;;;1.99;73.91;101626.31;1928448;74;21031;-56
2022/12/23 05:53:23;;;;;;;12.88;7.67;;;;;;;2.41;73.16;101624.99;1927499;74;21022;-57
2022/12/23 05:55:52;;;;;;;18.62;8.50;;;;;;;2.65;72.82;101621.28;1928333;74;21026;-56
2022/12/23 05:58:21;;;;;;;18.15;8.05;;;;;;;2.87;72.93;101620.15;1928453;74;21030;-56
2022/12/23 06:00:49;;;;;;;23.90;9.00;;;;;;;3.34;72.83;101616.97;1928379;74;21030;-56
2022/12/23 06:03:18;;;;;;;14.78;8.55;;;;;;;3.79;72.39;101615.84;1927640;74;22067;-56
2022/12/23 06:05:51;;;;;;;17.23;7.45;;;;;;;4.32;71.98;101618.12;1924876;74;21481;-57
2022/12/23 06:08:20;;;;;;;17.80;6.62;;;;;;;4.75;71.17;101618.11;1925007;74;21039;-57
2022/12/23 06:10:48;;;;;;;16.35;6.60;;;;;;;5.13;70.71;101619.36;1924876;74;21103;-56
2022/12/23 06:13:17;;;;;;;14.73;5.87;;;;;;;5.51;70.33;101618.79;1924910;74;21079;-56
2022/12/23 06:15:46;;;;;;;11.60;5.53;;;;;;;5.78;69.06;101613.44;1924674;74;21116;-55
2022/12/23 06:18:15;;;;;;;13.98;6.65;;;;;;;6.16;68.24;101616.31;1924829;74;21551;-55
2022/12/23 06:20:46;;;;;;;10.28;5.70;;;;;;;6.48;67.13;101617.81;1924772;74;21035;-55
2022/12/23 06:23:15;;;;;;;17.07;8.23;;;;;;;6.79;66.55;101611.01;1924833;74;21458;-56
2022/12/23 06:25:44;;;;;;;17.37;7.70;;;;;;;7.18;65.79;101608.86;1924757;74;20994;-56
2022/12/23 06:28:12;;;;;;;11.18;4.97;;;;;;;7.46;65.05;101608.09;1924943;74;21100;-55
2022/12/23 06:30:41;;;;;;;13.55;6.53;;;;;;;7.66;63.71;101600.43;1924897;74;21104;-56
2022/12/23 06:33:10;;;;;;;14.43;7.22;;;;;;;7.88;63.08;101601.01;1924873;74;21007;-57
2022/12/23 06:35:38;;;;;;;10.90;6.00;;;;;;;8.11;62.01;101599.34;1924672;74;21120;-57
2022/12/23 06:38:07;;;;;;;10.10;5.03;;;;;;;8.31;61.16;101605.60;1924831;74;21038;-57
2022/12/23 06:40:35;;;;;;;12.00;5.80;;;;;;;8.59;60.83;101601.25;1924969;74;21015;-57
2022/12/23 06:43:04;;;;;;;12.90;5.70;;;;;;;8.95;60.74;101600.19;1924852;74;21015;-55
2022/12/23 06:45:33;;;;;;;12.35;6.03;;;;;;;9.21;59.12;101597.92;1909329;74;21051;-56
2022/12/23 06:48:01;;;;;;;11.75;6.78;;;;;;;9.50;58.93;101596.48;1902008;75;21154;-57
2022/12/23 06:50:30;;;;;;;13.98;7.15;;;;;;;9.89;58.94;101592.56;1908250;75;21035;-57
2022/12/23 06:52:59;;;;;;;14.45;8.30;;;;;;;10.22;58.38;101596.63;1901687;75;21063;-57
2022/12/23 06:55:28;;;;;;;15.00;8.25;;;;;;;10.61;57.74;101594.80;1902071;75;21498;-56
2022/12/23 06:57:57;;;;;;;11.48;6.50;;;;;;;10.87;56.91;101595.04;1901770;75;21178;-56
2022/12/23 07:00:25;;;;;;;10.43;6.30;;;;;;;11.25;56.61;101592.67;1901899;75;21035;-52
2022/12/23 07:02:54;;;;;;;10.78;5.53;;;;;;;11.75;56.09;101596.06;1901967;75;21024;-53
2022/12/23 07:05:23;;;;;;;15.43;5.95;;;;;;;11.95;54.68;101584.47;1901935;75;21125;-56
2022/12/23 07:07:52;;;;;;;12.47;6.00;;;;;;;12.01;53.91;101587.37;1911849;75;21479;-57
2022/12/23 07:10:22;;;;;;;11.70;5.53;;;;;;;12.23;53.41;101590.19;1914711;75;21023;-56
2022/12/23 07:12:51;;;;;;;10.95;5.92;;;;;;;12.30;53.24;101591.72;1914522;75;21019;-56
2022/12/23 07:15:20;;;;;;;11.05;5.35;;;;;;;12.45;52.76;101593.42;1914638;75;21062;-58
2022/12/23 07:17:48;;;;;;;12.70;6.12;;;;;;;12.70;52.70;101595.64;1905182;75;21554;-57
2022/12/23 07:20:17;;;;;;;15.40;6.67;;;;;;;12.75;51.97;101595.03;1902095;75;21024;-57
2022/12/23 07:22:46;;;;;;;14.33;5.85;;;;;;;13.19;51.30;101592.22;1901935;75;21036;-57
2022/12/23 07:25:15;;;;;;;13.58;6.85;;;;;;;13.76;51.04;101588.33;1901920;75;21036;-58
2022/12/23 07:27:43;;;;;;;12.50;6.08;;;;;;;14.40;50.41;101589.30;1902215;75;21141;-57
2022/12/23 07:30:12;;;;;;;13.75;5.75;;;;;;;14.87;49.76;101578.50;1901997;75;21494;-57
2022/12/23 07:32:44;;;;;;;11.55;5.20;;;;;;;15.19;48.94;101581.52;1902044;75;21043;-57
2022/12/23 07:35:12;;;;;;;9.83;5.05;;;;;;;15.42;48.35;101581.33;1901958;75;21113;-57
2022/12/23 07:37:41;;;;;;;10.75;5.33;;;;;;;15.85;48.35;101575.84;1902250;75;20991;-57
2022/12/23 07:40:13;;;;;;;8.23;5.25;;;;;;;16.36;47.83;101576.03;1901833;75;21075;-56
2022/12/23 07:42:46;;;;;;;10.75;5.33;;;;;;;16.66;47.32;101576.73;1902054;75;21024;-57
2022/12/23 07:45:16;;;;;;;16.25;5.90;;;;;;;16.97;46.89;101571.57;1905227;75;21513;-57
2022/12/23 07:47:45;;;;;;;9.58;5.42;;;;;;;17.30;46.63;101568.05;1914715;74;21509;-56
2022/12/23 07:50:14;;;;;;;11.48;6.47;;;;;;;17.73;45.78;101563.02;1914007;75;21031;-57
2022/12/23 07:52:46;;;;;;;12.60;5.75;;;;;;;18.08;45.37;101558.85;1914589;75;21110;-57
2022/12/23 07:55:13;;;;;;;15.30;6.15;;;;;;;18.39;44.98;101555.73;1914531;75;21117;-57
2022/12/23 07:57:42;;;;;;;14.23;6.47;;;;;;;18.72;44.33;101550.68;1914562;75;21039;-56
2022/12/23 08:00:13;;;;;;;16.55;6.35;;;;;;;19.27;43.27;101549.97;1914533;75;21091;-57
2022/12/23 08:02:42;;;;;;;14.70;5.97;;;;;;;19.68;42.77;101551.81;1914638;75;21036;-59
2022/12/23 08:05:12;;;;;;;14.60;7.03;;;;;;;19.89;42.60;101542.05;1914724;75;21145;-54
2022/12/23 08:07:41;;;;;;;14.60;7.03;;;;;;;19.42;43.20;101540.13;1919245;75;21093;-56
2022/12/23 08:10:10;;;;;;;11.38;6.05;;;;;;;19.88;42.05;101542.98;1921398;75;21023;-58
2022/12/23 08:12:39;;;;;;;13.13;6.53;;;;;;;20.42;41.05;101530.91;1921291;75;21054;-57
2022/12/23 08:15:12;;;;;;;14.03;7.22;;;;;;;20.87;40.47;101532.37;1921243;75;21019;-57
2022/12/23 08:17:39;;;;;;;11.43;6.80;;;;;;;21.05;39.99;101527.55;1916632;75;21035;-58
2022/12/23 08:20:10;;;;;;;17.07;8.25;;;;;;;21.16;39.80;101524.47;1912408;75;21091;-57
2022/12/23 08:22:39;;;;;;;14.05;5.97;;;;;;;21.36;39.73;101526.22;1914671;75;21023;-57
2022/12/23 08:25:08;;;;;;;19.82;6.37;;;;;;;21.63;39.50;101522.52;1914704;75;21126;-56
2022/12/23 08:27:37;;;;;;;11.15;5.00;;;;;;;21.78;39.14;101516.01;1879612;75;21010;-57
2022/12/23 08:30:06;;;;;;;12.00;5.22;;;;;;;22.05;38.78;101515.78;1914497;75;21031;-60
2022/12/23 08:32:35;;;;;;;11.18;5.10;;;;;;;22.20;38.67;101507.05;1914675;75;21129;-58
2022/12/23 08:35:04;;;;;;;10.18;5.00;;;;;;;22.58;37.93;101505.98;1914603;75;21035;-59
2022/12/23 08:37:33;;;;;;;18.75;6.25;;;;;;;23.02;37.37;101502.96;1918435;75;21089;-59
2022/12/23 08:40:01;;;;;;;22.90;7.28;;;;;;;23.21;37.04;101494.80;1921289;75;21003;-56
2022/12/23 08:42:30;;;;;;;16.42;6.97;;;;;;;23.75;36.32;101494.43;1921127;75;21034;-56
2022/12/23 08:44:59;;;;;;;13.38;6.62;;;;;;;24.09;35.70;101494.69;1921452;75;21019;-60
2022/12/23 08:47:28;;;;;;;16.27;6.47;;;;;;;24.20;35.51;101497.82;1925842;74;21050;-57
2022/12/23 08:49:57;;;;;;;14.38;5.75;;;;;;;24.31;35.25;101494.22;1924806;74;21062;-57
2022/12/23 08:52:26;;;;;;;13.20;6.03;;;;;;;24.51;34.81;101497.86;1924710;74;21043;-58
2022/12/23 08:54:54;;;;;;;14.80;5.95;;;;;;;24.58;34.41;101492.84;1924864;74;21023;-58
2022/12/23 08:57:23;;;;;;;18.40;6.20;;;;;;;24.70;34.27;101486.41;1924977;74;21219;-57
2022/12/23 08:59:52;;;;;;;13.55;5.50;;;;;;;24.68;33.98;101486.16;1924712;74;21031;-57
2022/12/23 09:02:20;;;;;;;12.43;5.80;;;;;;;24.73;33.62;101486.11;1924751;74;21078;-58
2022/12/23 09:04:49;;;;;;;10.30;5.25;;;;;;;24.84;33.13;101479.80;1924969;74;21208;-59
2022/12/23 09:07:18;;;;;;;15.90;5.92;;;;;;;24.92;33.16;101477.30;1924974;74;21124;-58
2022/12/23 09:09:47;;;;;;;13.55;5.85;;;;;;;25.14;32.89;101475.36;1924823;74;21094;-58
2022/12/23 09:12:15;;;;;;;14.23;5.72;;;;;;;25.22;32.65;101468.80;1924935;74;21453;-59
2022/12/23 09:14:48;;;;;;;15.93;5.53;;;;;;;25.48;32.30;101465.62;1924963;74;21105;-58
2022/12/23 09:17:16;;;;;;;15.32;6.12;;;;;;;25.51;32.25;101457.23;1925896;74;21465;-61
2022/12/23 09:19:45;;;;;;;12.13;6.12;;;;;;;25.32;32.23;101460.27;1928446;74;21030;-62
2022/12/23 09:22:13;;;;;;;15.38;5.15;;;;;;;25.16;32.17;101451.34;1928344;74;21092;-61
2022/12/23 09:24:42;;;;;;;19.90;5.28;;;;;;;25.39;32.07;101450.63;1928407;74;21102;-58
2022/12/23 09:27:11;;;;;;;10.80;4.55;;;;;;;25.68;31.85;101447.63;1928113;74;21069;-59
2022/12/23 09:29:39;;;;;;;11.78;5.37;;;;;;;25.49;31.93;101439.01;1891768;76;21112;-57
2022/12/23 09:32:08;;;;;;;11.93;4.70;;;;;;;25.25;32.04;101452.41;1891751;76;21108;-56
2022/12/23 09:34:36;;;;;;;13.55;5.40;;;;;;;25.29;32.09;101440.34;1891655;76;21042;-55
2022/12/23 09:37:05;;;;;;;13.60;5.42;;;;;;;25.53;31.75;101434.56;1891710;76;21132;-54
2022/12/23 09:39:34;;;;;;;7.53;3.92;;;;;;;25.79;31.63;101436.19;1920173;74;21023;-54
2022/12/23 09:42:26;;;;;;;6.20;3.45;;;;;;;26.07;31.32;101432.80;1928410;74;21133;-57
2022/12/23 09:45:04;;;;;;;14.55;4.90;;;;;;;26.22;31.02;101424.59;1928057;74;21046;-58
2022/12/23 09:47:34;;;;;;;30.95;5.75;;;;;;;26.27;31.01;101424.17;1928456;74;21143;-57
2022/12/23 09:50:06;;;;;;;28.00;6.05;;;;;;;26.17;30.93;101419.64;1925537;74;21054;-58
2022/12/23 09:52:49;;;;;;;28.70;6.40;;;;;;;26.02;30.95;101419.72;1921650;74;21560;-57
2022/12/23 09:55:20;;;;;;;18.35;4.30;;;;;;;25.78;31.14;101415.63;1924982;74;21028;-57
2022/12/23 09:58:04;;;;;;;14.33;3.98;;;;;;;25.64;31.24;101413.34;1924814;74;21549;-55
2022/12/23 10:00:36;;;;;;;9.95;3.50;;;;;;;25.69;31.17;101402.13;1926777;74;21438;-60
2022/12/23 10:03:16;;;;;;;10.88;2.70;;;;;;;25.50;31.04;101409.72;1928234;74;21489;-60
2022/12/23 10:05:55;;;;;;;25.68;4.83;;;;;;;25.12;31.44;101403.25;1928114;74;21559;-56
2022/12/23 10:08:41;;;;;;;31.75;5.83;;;;;;;25.17;31.41;101412.61;1921540;74;21061;-53
2022/12/23 10:11:16;;;;;;;26.10;5.20;;;;;;;25.05;31.45;101411.89;1924322;74;21038;-57
2022/12/23 10:13:48;;;;;;;23.42;5.37;;;;;;;24.96;31.44;101408.67;1924859;74;21117;-54
2022/12/23 10:16:20;;;;;;;13.60;3.20;;;;;;;24.75;31.68;101400.69;1923999;74;21035;-49
2022/12/23 10:19:09;;;;;;;16.37;3.52;;;;;;;24.69;31.70;101393.64;1927563;74;21092;-54
2022/12/23 10:21:56;;;;;;;11.55;2.98;;;;;;;24.80;31.56;101398.41;1928385;74;21015;-58
2022/12/23 10:24:30;;;;;;;18.92;4.12;;;;;;;24.83;31.60;101395.95;1928230;74;21461;-59
2022/12/23 10:27:02;;;;;;;34.98;4.90;;;;;;;24.29;32.36;101399.31;1928004;74;21531;-57
2022/12/23 10:29:32;;;;;;;29.10;4.53;;;;;;;23.54;33.34;101390.41;1924035;74;21072;-56
2022/12/23 10:32:04;;;;;;;19.25;4.50;;;;;;;23.62;33.21;101390.59;1917092;74;21050;-56
2022/12/23 10:34:39;;;;;;;24.95;4.80;;;;;;;23.73;32.69;101387.51;1922788;74;21054;-52
2022/12/23 10:37:13;;;;;;;28.92;4.87;;;;;;;23.73;32.38;101388.85;1922786;74;21038;-53
2022/12/23 10:40:03;;;;;;;20.27;4.60;;;;;;;24.01;32.04;101382.84;1922792;74;21078;-57
2022/12/23 10:42:39;;;;;;;25.02;5.20;;;;;;;24.14;31.93;101388.02;1929598;74;21470;-55
2022/12/23 10:45:16;;;;;;;28.05;4.92;;;;;;;23.99;31.92;101386.66;1896645;76;21026;-54
2022/12/23 10:47:57;;;;;;;19.48;4.65;;;;;;;23.80;32.24;101385.54;1930219;74;21206;-54
2022/12/23 10:50:45;;;;;;;11.95;4.03;;;;;;;23.78;32.33;101379.41;1905646;74;21089;-53
2022/12/23 10:53:16;;;;;;;14.25;5.12;;;;;;;23.96;32.17;101382.87;1897441;74;21034;-55
2022/12/23 10:55:47;;;;;;;13.93;4.30;;;;;;;23.85;32.21;101385.16;1895619;75;21535;-52
2022/12/23 10:58:18;;;;;;;17.15;3.92;;;;;;;23.75;32.24;101383.69;1897533;76;21469;-51
2022/12/23 11:01:03;;;;;;;22.00;4.28;;;;;;;23.71;32.29;101386.29;1897507;74;21062;-50
2022/12/23 11:03:35;;;;;;;12.37;3.40;;;;;;;23.81;32.20;101387.27;1897380;75;21183;-55
2022/12/23 11:06:07;;;;;;;14.53;3.80;;;;;;;23.46;32.44;101385.67;1930064;73;21452;-44
2022/12/23 11:08:37;;;;;;;7.67;4.00;;;;;;;23.16;32.72;101389.55;1947983;74;21102;-49
2022/12/23 11:11:07;;;;;;;13.90;3.50;;;;;;;23.12;32.80;101385.77;1893306;74;21126;-48
2022/12/23 11:13:39;;;;;;;12.47;3.40;;;;;;;23.00;32.95;101391.25;1901759;74;21608;-44
2022/12/23 11:16:22;;;;;;;8.70;3.62;;;;;;;22.73;33.10;101392.02;1929910;74;21085;-53
2022/12/23 11:19:09;;;;;;;10.95;3.70;;;;;;;22.08;34.12;101398.06;1944311;74;21093;-55
2022/12/23 11:21:38;;;;;;;12.28;3.70;;;;;;;22.27;33.83;101397.01;1912818;74;21069;-54
2022/12/23 11:24:15;;;;;;;7.72;3.12;;;;;;;22.24;33.80;101382.45;1943782;74;21097;-51
2022/12/23 11:26:47;;;;;;;9.73;3.62;;;;;;;22.40;33.64;101389.34;1920202;74;21463;-51
2022/12/23 11:29:30;;;;;;;8.10;3.47;;;;;;;22.53;33.50;101387.39;1935032;74;21490;-53
2022/12/23 11:32:02;;;;;;;10.50;3.62;;;;;;;22.63;33.41;101392.87;1906192;74;21089;-55
2022/12/23 11:34:34;;;;;;;7.67;3.52;;;;;;;22.35;33.76;101381.64;1921044;74;21023;-47
2022/12/23 11:37:02;;;;;;;6.67;3.27;;;;;;;22.24;33.98;101386.97;1900292;74;21024;-51
2022/12/23 11:39:34;;;;;;;6.40;3.55;;;;;;;22.04;34.27;101385.38;1878369;76;21045;-49
2022/12/23 11:42:05;;;;;;;11.28;3.52;;;;;;;21.80;34.54;101385.44;1897962;74;21049;-52
2022/12/23 11:44:37;;;;;;;8.55;3.85;;;;;;;21.52;34.90;101392.85;1907854;74;21528;-52
2022/12/23 11:47:24;;;;;;;6.67;3.30;;;;;;;21.42;35.07;101385.61;1922385;74;21111;-53
2022/12/23 11:50:02;;;;;;;5.55;3.20;;;;;;;21.21;35.31;101388.42;1958054;73;21080;-53
2022/12/23 11:52:32;;;;;;;10.30;2.87;;;;;;;20.98;35.63;101385.23;1904801;74;21030;-51
2022/12/23 11:55:07;;;;;;;7.65;3.47;;;;;;;20.86;35.85;101380.30;1956786;73;21043;-53
2022/12/23 11:57:50;;;;;;;17.90;4.35;;;;;;;20.70;36.09;101387.72;1957985;73;21020;-52
2022/12/23 12:00:23;;;;;;;7.65;3.10;;;;;;;20.57;36.29;101386.37;1956994;73;21165;-54
2022/12/23 12:02:58;;;;;;;7.22;3.30;;;;;;;20.17;36.84;101387.81;1957924;73;21022;-51
2022/12/23 12:05:41;;;;;;;12.05;3.33;;;;;;;19.96;37.20;101384.33;1957930;73;21575;-53